CME weather

Ciudad del Carmen International Airport
Ciudad del Carmen, Campeche, Mexico

Public forecast

Using degrees Celsius for public forecast. Weather courtesy of forecast.io.

Current aviation weather report (METAR) for Ciudad del Carmen International Airport

Retrieved 2019/12/10 03:47 UTC (1 hour ago):

MMCE 100347Z 09006KT 7SM SKC 27/20 A2991

Aviation forecast (TAF) for Ciudad del Carmen International Airport

Forecast is more than 6 hours old.

Retrieved 2019/12/09 18:00 UTC (11 hours ago):

TAF MMCE 091655Z 0918/1018 15018KT P6SM SCT040 FM100200 15015G25KT 6SM HZ BKN015